Time;durP1;ratioP1;P1;durP2;ratioP2;P2;SDS_P1;SDS_P2;PMS_P1;PMS_P2;Temp;Humidity;BMP_temperature;BMP_pressure;BME280_temperature;BME280_humidity;BME280_pressure;Samples;Min_cycle;Max_cycle;Signal;HPM_P1;HPM_P2
2022/09/26 00:01:54;;;;;;;6.10;2.78;;;23.20;99.90;;;;;;5044253;28;20048;-55
2022/09/26 00:04:23;;;;;;;12.93;2.65;;;23.20;99.90;;;;;;5051725;28;20029;-57
2022/09/26 00:06:50;;;;;;;8.90;2.28;;;23.20;99.90;;;;;;5051727;28;20174;-56
2022/09/26 00:09:17;;;;;;;10.85;2.17;;;23.20;99.90;;;;;;5051359;28;20054;-55
2022/09/26 00:11:46;;;;;;;8.80;1.88;;;23.20;99.90;;;;;;5050679;28;20108;-54
2022/09/26 00:14:15;;;;;;;9.38;1.63;;;23.20;99.90;;;;;;5041794;28;20044;-57
2022/09/26 00:16:41;;;;;;;10.50;2.20;;;23.20;99.90;;;;;;5032191;28;20512;-58
2022/09/26 00:19:07;;;;;;;5.45;1.90;;;23.20;99.90;;;;;;5031730;28;20065;-54
2022/09/26 00:21:34;;;;;;;11.38;1.85;;;23.20;99.90;;;;;;5037578;28;20505;-52
2022/09/26 00:24:01;;;;;;;6.40;2.10;;;23.20;99.90;;;;;;5049135;28;20505;-53
2022/09/26 00:26:29;;;;;;;7.07;1.88;;;23.20;99.90;;;;;;5051567;28;20465;-55
2022/09/26 00:28:55;;;;;;;8.55;1.63;;;23.20;99.90;;;;;;5051390;28;20029;-54
2022/09/26 00:31:24;;;;;;;5.75;1.88;;;23.10;99.90;;;;;;5047627;28;20025;-52
2022/09/26 00:33:50;;;;;;;7.00;2.00;;;23.20;99.90;;;;;;5043073;28;20031;-54
2022/09/26 00:36:16;;;;;;;6.20;1.88;;;23.10;99.90;;;;;;5051423;28;20024;-54
2022/09/26 00:38:43;;;;;;;7.18;1.70;;;23.10;99.90;;;;;;5044215;28;20044;-55
2022/09/26 00:41:09;;;;;;;9.00;1.83;;;23.10;99.90;;;;;;5049470;28;20021;-55
2022/09/26 00:43:43;;;;;;;10.10;1.88;;;23.10;99.90;;;;;;5048790;28;20032;-55
2022/09/26 00:46:43;;;;;;;11.93;2.55;;;23.10;99.90;;;;;;5044833;28;20021;-54
2022/09/26 00:49:27;;;;;;;6.10;1.67;;;23.10;99.90;;;;;;5050582;28;20082;-55
2022/09/26 00:52:01;;;;;;;10.70;2.38;;;23.10;99.90;;;;;;5037535;28;20041;-54
2022/09/26 00:54:29;;;;;;;9.80;1.83;;;23.10;99.90;;;;;;5038556;28;20018;-53
2022/09/26 00:57:02;;;;;;;7.75;1.65;;;23.10;99.90;;;;;;5031462;28;20473;-53
2022/09/26 00:59:42;;;;;;;8.23;1.83;;;23.10;99.90;;;;;;5046171;28;20051;-53
2022/09/26 01:02:08;;;;;;;9.23;1.77;;;23.10;99.90;;;;;;5031284;28;20625;-53
2022/09/26 01:04:37;;;;;;;7.13;2.03;;;23.10;99.90;;;;;;5034918;28;20119;-52
2022/09/26 01:07:13;;;;;;;7.40;1.45;;;23.00;99.90;;;;;;5045338;28;20025;-54
2022/09/26 01:09:39;;;;;;;7.05;1.80;;;23.00;99.90;;;;;;5041023;28;20025;-54
2022/09/26 01:12:07;;;;;;;5.47;1.70;;;23.00;99.90;;;;;;5040528;28;20025;-52
2022/09/26 01:14:34;;;;;;;4.70;1.50;;;23.00;99.90;;;;;;5042708;28;20112;-52
2022/09/26 01:17:00;;;;;;;6.60;2.03;;;23.00;99.90;;;;;;5046265;28;20024;-53
2022/09/26 01:19:42;;;;;;;6.75;1.90;;;22.90;99.90;;;;;;5044346;28;20044;-52
2022/09/26 01:22:14;;;;;;;6.45;2.10;;;22.90;99.90;;;;;;5041978;28;20174;-53
2022/09/26 01:25:17;;;;;;;9.70;1.63;;;22.90;99.90;;;;;;5043964;28;20044;-53
2022/09/26 01:27:51;;;;;;;7.68;1.75;;;22.90;99.90;;;;;;5045087;28;20107;-52
2022/09/26 01:30:26;;;;;;;11.80;2.67;;;22.90;99.90;;;;;;5048366;28;20103;-52
2022/09/26 01:33:13;;;;;;;9.82;1.50;;;22.90;99.90;;;;;;5046503;28;20067;-52
2022/09/26 01:36:00;;;;;;;8.40;2.35;;;22.90;99.90;;;;;;5046200;28;20021;-54
2022/09/26 01:38:29;;;;;;;;;;;22.90;99.90;;;;;;5047443;28;20148;-54
2022/09/26 01:41:23;;;;;;;8.25;1.58;;;22.90;99.90;;;;;;5044104;28;19904;-54
2022/09/26 01:44:10;;;;;;;6.28;1.67;;;22.80;99.90;;;;;;5042586;28;20077;-53
2022/09/26 01:46:49;;;;;;;7.38;1.80;;;22.90;99.90;;;;;;5045084;28;20073;-53
2022/09/26 01:49:54;;;;;;;8.20;1.67;;;22.80;99.90;;;;;;5046057;28;20106;-53
2022/09/26 01:52:33;;;;;;;7.30;2.15;;;22.80;99.90;;;;;;5047146;28;20037;-54
2022/09/26 01:55:11;;;;;;;6.70;1.67;;;22.80;99.90;;;;;;5044665;28;20122;-53
2022/09/26 01:57:55;;;;;;;6.25;1.70;;;22.80;99.90;;;;;;5040624;28;20227;-52
2022/09/26 02:00:21;;;;;;;10.88;2.00;;;22.80;99.90;;;;;;5047497;28;20068;-54
2022/09/26 02:02:48;;;;;;;4.38;1.25;;;22.80;99.90;;;;;;5054762;28;20063;-54
2022/09/26 02:05:21;;;;;;;7.50;1.85;;;22.80;99.90;;;;;;5045570;28;20034;-55
2022/09/26 02:07:57;;;;;;;5.15;1.98;;;22.70;99.90;;;;;;5034778;28;20025;-54
2022/09/26 02:10:58;;;;;;;5.97;1.55;;;22.70;99.90;;;;;;5033312;28;20484;-55
2022/09/26 02:13:42;;;;;;;5.07;1.88;;;22.70;99.90;;;;;;5030603;28;20033;-55
2022/09/26 02:16:15;;;;;;;13.85;2.75;;;22.70;99.90;;;;;;5034572;28;20030;-54
2022/09/26 02:18:47;;;;;;;6.40;1.80;;;22.70;99.90;;;;;;5034541;28;20318;-54
2022/09/26 02:21:23;;;;;;;8.18;2.13;;;22.60;99.90;;;;;;5033141;28;20103;-54
2022/09/26 02:23:51;;;;;;;8.05;1.95;;;22.60;99.90;;;;;;5034663;28;20053;-54
2022/09/26 02:26:17;;;;;;;8.55;2.05;;;22.60;99.90;;;;;;5034580;28;20025;-53
2022/09/26 02:28:44;;;;;;;7.82;2.03;;;22.60;99.90;;;;;;5034323;28;20079;-53
2022/09/26 02:31:13;;;;;;;5.10;1.75;;;22.60;99.90;;;;;;5046436;28;20274;-54
2022/09/26 02:33:39;;;;;;;6.07;1.55;;;22.60;99.90;;;;;;5053133;28;20131;-54
2022/09/26 02:36:09;;;;;;;9.50;2.78;;;22.50;99.90;;;;;;5053021;28;20024;-54
2022/09/26 02:38:36;;;;;;;6.13;1.70;;;22.50;99.90;;;;;;5054185;28;20048;-54
2022/09/26 02:41:44;;;;;;;10.32;2.42;;;22.50;99.90;;;;;;5054240;28;20108;-54
2022/09/26 02:44:16;;;;;;;4.93;1.63;;;22.50;99.90;;;;;;5053890;28;20476;-53
2022/09/26 02:47:19;;;;;;;8.77;1.80;;;22.50;99.90;;;;;;5054237;28;20132;-54
2022/09/26 02:49:59;;;;;;;7.35;2.42;;;22.50;99.90;;;;;;5054160;28;20124;-54
2022/09/26 02:53:12;;;;;;;3.72;1.70;;;22.50;99.90;;;;;;5054276;28;20033;-54
2022/09/26 02:55:54;;;;;;;6.82;1.50;;;22.50;99.90;;;;;;5051713;28;20029;-54
2022/09/26 02:59:15;;;;;;;6.65;1.65;;;22.50;99.90;;;;;;5054070;28;20040;-53
2022/09/26 03:01:48;;;;;;;6.65;1.70;;;22.50;99.90;;;;;;4992170;28;20109;-54
2022/09/26 03:04:37;;;;;;;9.77;1.70;;;22.50;99.90;;;;;;5044013;28;20120;-54
2022/09/26 03:07:08;;;;;;;5.00;1.75;;;22.40;99.90;;;;;;5053754;28;20032;-54
2022/09/26 03:09:36;;;;;;;5.75;1.40;;;22.40;99.90;;;;;;5053854;28;20036;-53
2022/09/26 03:12:05;;;;;;;4.63;1.58;;;22.40;99.90;;;;;;5053482;28;20044;-54
2022/09/26 03:14:34;;;;;;;4.20;1.60;;;22.40;99.90;;;;;;5053632;28;20025;-54
2022/09/26 03:17:02;;;;;;;5.40;1.45;;;22.30;99.90;;;;;;5053835;28;20017;-54
2022/09/26 03:20:08;;;;;;;9.15;2.10;;;22.40;99.90;;;;;;5053594;28;20047;-54
2022/09/26 03:22:34;;;;;;;10.10;1.90;;;22.40;99.90;;;;;;5053349;28;20267;-54
2022/09/26 03:25:01;;;;;;;9.20;2.30;;;22.40;99.90;;;;;;5053441;28;20029;-54
2022/09/26 03:27:28;;;;;;;8.73;1.80;;;22.30;99.90;;;;;;5053548;28;20032;-54
2022/09/26 03:29:53;;;;;;;6.82;1.70;;;22.30;99.90;;;;;;5053579;28;20104;-54
2022/09/26 03:32:20;;;;;;;8.70;1.73;;;22.30;99.90;;;;;;5053156;28;20536;-54
2022/09/26 03:34:46;;;;;;;6.45;1.95;;;22.30;99.90;;;;;;5053346;28;20025;-54
2022/09/26 03:37:12;;;;;;;5.45;1.80;;;22.30;99.90;;;;;;5053381;28;20515;-53
2022/09/26 03:39:38;;;;;;;8.43;2.40;;;22.30;99.90;;;;;;5052884;28;20159;-54
2022/09/26 03:42:04;;;;;;;5.82;1.80;;;22.30;99.90;;;;;;5053136;28;20021;-54
2022/09/26 03:44:29;;;;;;;8.15;2.40;;;22.30;99.90;;;;;;5053085;28;20032;-54
2022/09/26 03:46:56;;;;;;;6.60;1.90;;;22.30;99.90;;;;;;5053391;28;20480;-54
2022/09/26 03:49:22;;;;;;;3.38;1.42;;;22.30;99.90;;;;;;5053411;28;20033;-54
2022/09/26 03:51:48;;;;;;;6.50;2.42;;;22.20;99.90;;;;;;5053004;28;20029;-54
2022/09/26 03:54:14;;;;;;;13.10;2.70;;;22.20;99.90;;;;;;5052986;28;20399;-54
2022/09/26 03:56:40;;;;;;;5.63;1.80;;;22.20;99.90;;;;;;5053068;28;20047;-54
2022/09/26 03:59:06;;;;;;;10.00;2.33;;;22.20;99.90;;;;;;5052810;28;20494;-54
2022/09/26 04:01:32;;;;;;;6.07;1.67;;;22.20;99.90;;;;;;5053893;28;20027;-54
2022/09/26 04:03:57;;;;;;;14.35;2.08;;;22.20;99.90;;;;;;5052722;28;20024;-53
2022/09/26 04:06:23;;;;;;;9.70;2.97;;;22.20;99.90;;;;;;5052916;28;20017;-54
2022/09/26 04:08:51;;;;;;;4.53;1.55;;;22.10;99.90;;;;;;5052550;28;20029;-54
2022/09/26 04:11:18;;;;;;;;;;;22.10;99.90;;;;;;5053148;28;20021;-54
2022/09/26 04:13:44;;;;;;;;;;;22.10;99.90;;;;;;5053167;28;19904;-54
2022/09/26 04:16:10;;;;;;;;;;;22.10;99.90;;;;;;5053128;28;20015;-54
2022/09/26 04:18:36;;;;;;;;;;;22.10;99.90;;;;;;5052769;28;19909;-54
2022/09/26 04:21:07;;;;;;;;;;;22.10;99.90;;;;;;5052840;28;20360;-54
2022/09/26 04:23:34;;;;;;;;;;;22.00;99.90;;;;;;5051948;28;19909;-54
2022/09/26 04:26:10;;;;;;;;;;;22.00;99.90;;;;;;5052716;28;19909;-54
2022/09/26 04:28:37;;;;;;;;;;;22.10;99.90;;;;;;5052614;28;19908;-54
2022/09/26 04:31:05;;;;;;;;;;;22.10;99.90;;;;;;5052710;28;19905;-54
2022/09/26 04:33:32;;;;;;;;;;;22.10;99.90;;;;;;5052490;28;19912;-54
2022/09/26 04:35:58;;;;;;;;;;;22.00;99.90;;;;;;5052841;28;20335;-54
2022/09/26 04:38:32;;;;;;;;;;;22.10;99.90;;;;;;5052497;28;19917;-54
2022/09/26 04:41:02;;;;;;;;;;;22.00;99.90;;;;;;5052597;28;19911;-54
2022/09/26 04:43:28;;;;;;;;;;;22.00;99.90;;;;;;5052668;28;19905;-54
2022/09/26 04:45:53;;;;;;;;;;;22.00;99.90;;;;;;5052466;28;19905;-55
2022/09/26 04:48:20;;;;;;;;;;;22.00;99.90;;;;;;5052240;28;19952;-55
2022/09/26 04:50:46;;;;;;;;;;;21.90;99.90;;;;;;5052385;28;20003;-54
2022/09/26 04:53:12;;;;;;;;;;;22.00;99.90;;;;;;5052199;28;20050;-54
2022/09/26 04:55:42;;;;;;;;;;;21.90;99.90;;;;;;5052280;28;20287;-54
2022/09/26 04:58:07;;;;;;;;;;;21.90;99.90;;;;;;5051954;28;19911;-54
2022/09/26 05:00:33;;;;;;;;;;;21.90;99.90;;;;;;5052061;28;19948;-54
2022/09/26 05:02:58;;;;;;;;;;;21.90;99.90;;;;;;5052438;28;19911;-54
2022/09/26 05:05:24;;;;;;;;;;;21.90;99.90;;;;;;5052094;28;19909;-54
2022/09/26 05:07:49;;;;;;;;;;;21.90;99.90;;;;;;5051799;28;19912;-53
2022/09/26 05:10:15;;;;;;;;;;;21.90;99.90;;;;;;5051910;28;19904;-53
2022/09/26 05:12:41;;;;;;;;;;;21.90;99.90;;;;;;5051793;28;20004;-54
2022/09/26 05:15:07;;;;;;;;;;;21.90;99.90;;;;;;5051773;28;20004;-54
2022/09/26 05:17:36;;;;;;;;;;;21.80;99.90;;;;;;5051799;28;20284;-54
2022/09/26 05:20:09;;;;;;;;;;;21.80;99.90;;;;;;5051764;28;19919;-54
2022/09/26 05:22:36;;;;;;;;;;;21.80;99.90;;;;;;5051740;28;19905;-54
2022/09/26 05:27:47;;;;;;;;;;;21.80;99.90;;;;;;5052061;28;20003;-54
2022/09/26 05:30:12;;;;;;;;;;;21.80;99.90;;;;;;5051569;28;19995;-54
2022/09/26 05:32:38;;;;;;;;;;;21.80;99.90;;;;;;5051461;28;19905;-53
2022/09/26 05:35:04;;;;;;;;;;;21.80;99.90;;;;;;5051465;28;19947;-53
2022/09/26 05:37:30;;;;;;;;;;;21.80;99.90;;;;;;5051619;28;19909;-53
2022/09/26 05:42:40;;;;;;;;;;;21.80;99.90;;;;;;5052051;28;19912;-54
2022/09/26 05:45:06;;;;;;;;;;;21.80;99.90;;;;;;5051475;28;19905;-54
2022/09/26 05:47:35;;;;;;;;;;;21.80;99.90;;;;;;5051588;28;19951;-54
2022/09/26 05:50:08;;;;;;;;;;;21.80;99.90;;;;;;5051563;28;19909;-55
2022/09/26 05:52:37;;;;;;;;;;;21.80;99.90;;;;;;5051555;28;19904;-55
2022/09/26 05:55:02;;;;;;;;;;;21.80;99.90;;;;;;5051533;28;20357;-55
2022/09/26 05:57:28;;;;;;;;;;;21.70;99.90;;;;;;5051697;28;19912;-54
2022/09/26 05:59:53;;;;;;;;;;;21.70;99.90;;;;;;5051513;28;19913;-54
2022/09/26 06:02:19;;;;;;;;;;;21.70;99.90;;;;;;5051311;28;19905;-54
2022/09/26 06:04:45;;;;;;;;;;;21.70;99.90;;;;;;5049951;28;19905;-53
2022/09/26 06:07:11;;;;;;;;;;;21.70;99.90;;;;;;5051260;28;19905;-55
2022/09/26 06:09:37;;;;;;;;;;;21.70;99.90;;;;;;5051085;28;20023;-61
2022/09/26 06:12:02;;;;;;;;;;;21.70;99.90;;;;;;5051199;28;20360;-54
2022/09/26 06:14:28;;;;;;;;;;;21.60;99.90;;;;;;5051109;28;19905;-54
2022/09/26 06:16:54;;;;;;;;;;;21.60;99.90;;;;;;5051198;28;20348;-54
2022/09/26 06:19:19;;;;;;;;;;;21.60;99.90;;;;;;5051074;28;19955;-54
2022/09/26 06:21:45;;;;;;;;;;;21.60;99.90;;;;;;5051129;28;19905;-53
2022/09/26 06:24:11;;;;;;;;;;;21.60;99.90;;;;;;5050945;28;19909;-54
2022/09/26 06:26:37;;;;;;;;;;;21.60;99.90;;;;;;5051202;28;19905;-54
2022/09/26 06:29:03;;;;;;;;;;;21.60;99.90;;;;;;5051273;28;19912;-55
2022/09/26 06:31:29;;;;;;;;;;;21.60;99.90;;;;;;5050893;28;19958;-55
2022/09/26 06:33:54;;;;;;;;;;;21.60;99.90;;;;;;5051037;28;19932;-54
2022/09/26 06:36:21;;;;;;;;;;;21.60;99.90;;;;;;5050878;28;19915;-54
2022/09/26 06:38:47;;;;;;;;;;;21.60;99.90;;;;;;5050853;28;19916;-54
2022/09/26 06:41:15;;;;;;;;;;;21.60;99.90;;;;;;5050972;28;19905;-54
2022/09/26 06:43:43;;;;;;;;;;;21.60;99.90;;;;;;5050808;28;19904;-55
2022/09/26 06:46:09;;;;;;;;;;;21.60;99.90;;;;;;5051952;28;20042;-55
2022/09/26 06:48:35;;;;;;;;;;;21.60;99.90;;;;;;5054658;28;19905;-55
2022/09/26 06:51:01;;;;;;;;;;;21.70;99.90;;;;;;5054434;28;19911;-55
2022/09/26 06:53:26;;;;;;;;;;;21.70;99.90;;;;;;5054556;28;20285;-55
2022/09/26 06:55:53;;;;;;;;;;;21.70;99.90;;;;;;5054219;28;20243;-55
2022/09/26 06:58:18;;;;;;;;;;;21.80;99.90;;;;;;5054057;28;19905;-55
2022/09/26 07:00:44;;;;;;;;;;;21.80;99.90;;;;;;5053097;28;19962;-55
2022/09/26 07:03:12;;;;;;;;;;;21.80;99.90;;;;;;5052877;28;19912;-55
2022/09/26 07:05:38;;;;;;;;;;;21.80;99.90;;;;;;5054051;28;19908;-55
2022/09/26 07:08:04;;;;;;;;;;;21.80;99.90;;;;;;5054126;28;19912;-55
2022/09/26 07:10:33;;;;;;;;;;;21.90;99.90;;;;;;5053873;28;19905;-55
2022/09/26 07:13:01;;;;;;;;;;;21.90;99.90;;;;;;5054089;28;19999;-55
2022/09/26 07:15:29;;;;;;;;;;;21.90;99.90;;;;;;5053929;28;19916;-55
2022/09/26 07:17:56;;;;;;;;;;;21.90;99.90;;;;;;5053890;28;19934;-55
2022/09/26 07:20:22;;;;;;;;;;;21.90;99.90;;;;;;5053579;28;19916;-55
2022/09/26 07:22:48;;;;;;;;;;;22.00;99.90;;;;;;5053503;28;19923;-55
2022/09/26 07:25:13;;;;;;;;;;;22.00;99.90;;;;;;5053710;28;19923;-55
2022/09/26 07:27:39;;;;;;;;;;;22.10;99.90;;;;;;5053622;28;19913;-55
2022/09/26 07:30:06;;;;;;;;;;;22.10;99.90;;;;;;5053901;28;19909;-55
2022/09/26 07:32:32;;;;;;;;;;;22.10;99.90;;;;;;5053638;28;19954;-55
2022/09/26 07:34:58;;;;;;;;;;;22.20;99.90;;;;;;5053449;28;19948;-55
2022/09/26 07:37:24;;;;;;;;;;;22.20;99.90;;;;;;5053325;28;19908;-55
2022/09/26 07:39:49;;;;;;;;;;;22.30;99.90;;;;;;5052934;28;20015;-55
2022/09/26 07:42:16;;;;;;;;;;;22.30;99.90;;;;;;5053545;28;19911;-55
2022/09/26 07:44:42;;;;;;;;;;;22.40;99.90;;;;;;5053313;28;20287;-55
2022/09/26 07:50:10;;;;;;;;;;;22.40;99.90;;;;;;5053714;28;20426;-55
2022/09/26 07:52:36;;;;;;;;;;;22.50;99.90;;;;;;5053509;28;19988;-55
2022/09/26 07:55:02;;;;;;;;;;;22.60;99.90;;;;;;5053229;28;19926;-55
2022/09/26 07:57:31;;;;;;;;;;;22.60;99.90;;;;;;5053238;28;20318;-55
2022/09/26 07:59:58;;;;;;;;;;;22.60;99.90;;;;;;5052936;28;19928;-55
2022/09/26 08:02:25;;;;;;;;;;;22.70;99.90;;;;;;5052958;28;19947;-55
2022/09/26 08:04:53;;;;;;;;;;;22.70;99.90;;;;;;5052932;28;20330;-56
2022/09/26 08:07:19;;;;;;;;;;;22.80;99.90;;;;;;5053062;28;20336;-55
2022/09/26 08:09:44;;;;;;;;;;;22.90;99.90;;;;;;5051563;28;19947;-55
2022/09/26 08:12:10;;;;;;;;;;;22.90;99.90;;;;;;5051749;28;19951;-55
2022/09/26 08:14:36;;;;;;;;;;;23.00;99.90;;;;;;5053115;28;19905;-56
2022/09/26 08:17:02;;;;;;;;;;;23.00;99.90;;;;;;5052820;28;19905;-55
2022/09/26 08:19:28;;;;;;;;;;;23.00;99.90;;;;;;5052763;28;20020;-55
2022/09/26 08:21:53;;;;;;;;;;;23.10;99.90;;;;;;5052584;28;19948;-55
2022/09/26 08:24:19;;;;;;;;;;;23.10;99.90;;;;;;5052599;28;19913;-55
2022/09/26 08:26:44;;;;;;;;;;;23.10;99.90;;;;;;5052602;28;19912;-55
2022/09/26 08:29:11;;;;;;;;;;;23.20;99.90;;;;;;5052687;28;19908;-55
2022/09/26 08:31:37;;;;;;;;;;;23.20;99.90;;;;;;5052666;28;19912;-55
2022/09/26 08:34:04;;;;;;;;;;;23.20;99.90;;;;;;5052446;28;20027;-55
2022/09/26 08:36:29;;;;;;;;;;;23.30;99.90;;;;;;5052504;28;19912;-55
2022/09/26 08:38:56;;;;;;;;;;;23.30;99.90;;;;;;5052196;28;19916;-55
2022/09/26 08:41:32;;;;;;;;;;;23.40;99.90;;;;;;5052286;28;19939;-55
2022/09/26 08:44:02;;;;;;;;;;;23.40;99.90;;;;;;5084474;28;19905;-55
2022/09/26 08:49:29;;;;;;;;;;;23.50;99.90;;;;;;5052696;28;19995;-55
2022/09/26 08:51:55;;;;;;;;;;;23.50;99.90;;;;;;5052138;28;20345;-55
2022/09/26 08:54:21;;;;;;;;;;;23.60;99.90;;;;;;5052030;28;19932;-55
2022/09/26 08:56:49;;;;;;;;;;;23.60;99.90;;;;;;5052046;28;20005;-55
2022/09/26 08:59:20;;;;;;;;;;;23.60;99.90;;;;;;5051860;28;20058;-55
2022/09/26 09:01:47;;;;;;;;;;;23.70;99.90;;;;;;5051994;28;19912;-55
2022/09/26 09:04:15;;;;;;;;;;;23.70;99.90;;;;;;5051966;28;19936;-55
2022/09/26 09:06:42;;;;;;;;;;;23.70;99.90;;;;;;5052220;28;19905;-55
2022/09/26 09:09:10;;;;;;;;;;;23.70;99.90;;;;;;5051534;28;20279;-54
2022/09/26 09:11:41;;;;;;;;;;;23.80;99.90;;;;;;5051698;28;19904;-55
2022/09/26 09:14:30;;;;;;;;;;;23.80;99.90;;;;;;5051642;28;20390;-55
2022/09/26 09:17:14;;;;;;;;;;;23.80;99.90;;;;;;5050338;28;19912;-54
2022/09/26 09:19:59;;;;;;;;;;;23.90;99.90;;;;;;5051836;28;19916;-55
2022/09/26 09:22:27;;;;;;;;;;;23.90;99.90;;;;;;5051676;28;19939;-55
2022/09/26 09:24:58;;;;;;;;;;;23.90;99.90;;;;;;5051604;28;19911;-54
2022/09/26 09:27:42;;;;;;;;;;;24.00;99.90;;;;;;5051607;28;19928;-55
2022/09/26 09:30:14;;;;;;;;;;;24.00;99.90;;;;;;5051704;28;19974;-55
2022/09/26 09:32:47;;;;;;;;;;;24.10;99.90;;;;;;5051727;28;19905;-55
2022/09/26 09:35:14;;;;;;;;;;;24.10;99.90;;;;;;5051668;28;19970;-54
2022/09/26 09:37:43;;;;;;;;;;;24.20;99.90;;;;;;5051229;28;19904;-54
2022/09/26 09:40:32;;;;;;;;;;;24.20;99.90;;;;;;5051054;28;20015;-55
2022/09/26 09:43:02;;;;;;;;;;;24.30;99.90;;;;;;5053293;28;19970;-55
2022/09/26 09:45:32;;;;;;;;;;;24.30;99.90;;;;;;5051288;28;20364;-55
2022/09/26 09:47:58;;;;;;;;;;;24.40;99.90;;;;;;5051448;28;20003;-54
2022/09/26 09:50:26;;;;;;;;;;;24.40;99.90;;;;;;5051396;28;19974;-54
2022/09/26 09:52:57;;;;;;;;;;;24.50;99.90;;;;;;5051368;28;20364;-55
2022/09/26 09:55:29;;;;;;;;;;;24.50;99.90;;;;;;5051326;28;19908;-55
2022/09/26 09:57:54;;;;;;;;;;;24.60;99.90;;;;;;5051073;28;20353;-55
2022/09/26 10:00:21;;;;;;;;;;;24.60;99.90;;;;;;5051177;28;19917;-55
2022/09/26 10:02:50;;;;;;;;;;;24.70;99.90;;;;;;5038227;28;20027;-55
2022/09/26 10:05:18;;;;;;;;;;;24.70;99.90;;;;;;5051231;28;19905;-55
2022/09/26 10:07:45;;;;;;;;;;;24.80;99.90;;;;;;5051269;28;19971;-55
2022/09/26 10:10:14;;;;;;;;;;;24.80;99.90;;;;;;5051356;28;20042;-55
2022/09/26 10:12:42;;;;;;;;;;;24.80;99.90;;;;;;5050915;28;20049;-55
2022/09/26 10:15:18;;;;;;;;;;;24.90;99.90;;;;;;5050898;28;19904;-55
2022/09/26 10:18:02;;;;;;;;;;;25.00;99.90;;;;;;5051015;28;19904;-55
2022/09/26 10:20:36;;;;;;;;;;;25.00;99.90;;;;;;5047902;28;20015;-55
2022/09/26 10:23:08;;;;;;;;;;;25.00;99.90;;;;;;5052243;28;19911;-55
2022/09/26 10:25:33;;;;;;;;;;;25.10;99.90;;;;;;5052769;28;20272;-55
2022/09/26 10:28:03;;;;;;;;;;;25.10;99.90;;;;;;5051927;28;19904;-55
2022/09/26 10:30:32;;;;;;;;;;;25.10;99.90;;;;;;5054691;28;20350;-55
2022/09/26 10:32:58;;;;;;;;;;;25.20;99.90;;;;;;5048603;28;19974;-56
2022/09/26 10:35:44;;;;;;;;;;;25.20;99.90;;;;;;5053925;28;19911;-55
2022/09/26 10:38:26;;;;;;;;;;;25.20;99.90;;;;;;5053820;28;19935;-55
2022/09/26 10:40:54;;;;;;;;;;;25.20;99.90;;;;;;5054530;28;19905;-55
2022/09/26 10:43:24;;;;;;;;;;;25.30;99.90;;;;;;5050184;28;19909;-56
2022/09/26 10:45:54;;;;;;;;;;;25.30;99.90;;;;;;5048974;28;19919;-52
2022/09/26 10:48:26;;;;;;;;;;;25.30;99.90;;;;;;5048866;28;19927;-54
2022/09/26 10:50:59;;;;;;;;;;;25.40;99.90;;;;;;5051493;28;19904;-55
2022/09/26 10:53:25;;;;;;;;;;;25.50;99.90;;;;;;5052580;28;19913;-55
2022/09/26 10:55:57;;;;;;;;;;;25.50;99.90;;;;;;5049110;28;19908;-55
2022/09/26 10:58:26;;;;;;;;;;;25.60;99.90;;;;;;5053806;28;19952;-54
2022/09/26 11:00:52;;;;;;;;;;;25.70;99.90;;;;;;5051800;28;19928;-54
2022/09/26 11:03:44;;;;;;;;;;;25.70;99.90;;;;;;5049910;28;19920;-55
2022/09/26 11:06:29;;;;;;;;;;;25.70;99.90;;;;;;5049379;28;20003;-55
2022/09/26 11:08:59;;;;;;;;;;;25.70;99.90;;;;;;5050013;28;19909;-55
2022/09/26 11:11:26;;;;;;;;;;;25.70;99.90;;;;;;5047386;28;19952;-53
2022/09/26 11:14:01;;;;;;;;;;;25.70;99.90;;;;;;5050889;28;19966;-54
2022/09/26 11:16:27;;;;;;;;;;;25.70;99.90;;;;;;5050390;28;20306;-53
2022/09/26 11:19:16;;;;;;;;;;;25.80;99.90;;;;;;5051444;28;19920;-54
2022/09/26 11:21:46;;;;;;;;;;;25.70;99.90;;;;;;5050725;28;20339;-54
2022/09/26 11:24:23;;;;;;;;;;;25.70;99.90;;;;;;5051159;28;19905;-54
2022/09/26 11:26:55;;;;;;;;;;;25.70;99.90;;;;;;5051615;28;20065;-54
2022/09/26 11:29:27;;;;;;;;;;;25.70;99.90;;;;;;5049374;28;19917;-54
2022/09/26 11:31:52;;;;;;;;;;;25.70;99.90;;;;;;5051002;28;19999;-54
2022/09/26 11:34:25;;;;;;;;;;;25.70;99.90;;;;;;5051563;28;19996;-54
2022/09/26 11:36:53;;;;;;;;;;;25.70;99.90;;;;;;5051411;28;20391;-55
2022/09/26 11:39:36;;;;;;;;;;;25.70;99.90;;;;;;5051441;28;20039;-55
2022/09/26 11:42:02;;;;;;;;;;;25.70;99.90;;;;;;5050995;28;19920;-54
2022/09/26 11:44:28;;;;;;;;;;;25.70;99.90;;;;;;5050418;28;19908;-54
2022/09/26 11:46:53;;;;;;;;;;;25.70;99.90;;;;;;5051166;28;19931;-53
2022/09/26 11:49:22;;;;;;;;;;;25.70;99.90;;;;;;5050632;28;20363;-53
2022/09/26 11:52:02;;;;;;;;;;;25.70;99.90;;;;;;5050135;28;19915;-54
2022/09/26 11:54:34;;;;;;;;;;;25.70;99.90;;;;;;5047943;28;19911;-53
2022/09/26 11:57:00;;;;;;;;;;;25.70;99.90;;;;;;5050227;28;19904;-54
2022/09/26 11:59:26;;;;;;;;;;;25.70;99.90;;;;;;5050785;28;19973;-51
2022/09/26 12:02:14;;;;;;;;;;;25.80;99.90;;;;;;5050357;28;19912;-52
2022/09/26 12:04:44;;;;;;;;;;;25.80;99.90;;;;;;5050759;28;20003;-50
2022/09/26 12:07:16;;;;;;;;;;;25.80;99.90;;;;;;5049959;28;19912;-52
2022/09/26 12:09:54;;;;;;;;;;;25.80;99.90;;;;;;5047823;28;19916;-53
2022/09/26 12:12:30;;;;;;;;;;;25.80;99.90;;;;;;5048471;28;20371;-52
2022/09/26 12:15:18;;;;;;;;;;;25.80;99.90;;;;;;5049888;28;19905;-50
2022/09/26 12:17:43;;;;;;;;;;;25.90;99.90;;;;;;5050109;28;19904;-54
2022/09/26 12:20:19;;;;;;;;;;;25.90;99.90;;;;;;5050437;28;19913;-52
2022/09/26 12:22:49;;;;;;;;;;;25.90;99.90;;;;;;5050395;28;19912;-53
2022/09/26 12:25:33;;;;;;;;;;;25.90;99.90;;;;;;5050750;28;20428;-54
2022/09/26 12:28:15;;;;;;;;;;;25.90;99.90;;;;;;5050036;28;19905;-54
2022/09/26 12:30:43;;;;;;;;;;;26.00;99.90;;;;;;5050378;28;19912;-54
2022/09/26 12:33:19;;;;;;;;;;;26.00;99.90;;;;;;5050546;28;20135;-54
2022/09/26 12:35:45;;;;;;;;;;;26.00;99.90;;;;;;5039857;28;19958;-54
2022/09/26 12:38:20;;;;;;;;;;;26.00;99.90;;;;;;5047816;28;20364;-55
2022/09/26 12:40:45;;;;;;;;;;;26.10;99.90;;;;;;5042872;28;19916;-55
2022/09/26 12:43:12;;;;;;;;;;;26.10;99.90;;;;;;5039796;28;19909;-54
2022/09/26 12:45:56;;;;;;;;;;;26.10;99.90;;;;;;5042235;28;19956;-55
2022/09/26 12:48:33;;;;;;;;;;;26.10;99.90;;;;;;5045386;28;19979;-53
2022/09/26 12:51:21;;;;;;;;;;;26.20;99.90;;;;;;5044666;28;20029;-53
2022/09/26 12:53:46;;;;;;;;;;;26.20;99.90;;;;;;5047346;28;19909;-54
2022/09/26 12:56:17;;;;;;;;;;;26.20;99.90;;;;;;5046554;28;19954;-51
2022/09/26 12:58:43;;;;;;;;;;;26.20;99.90;;;;;;5044873;28;19912;-49
2022/09/26 13:01:29;;;;;;;;;;;26.30;99.90;;;;;;5045832;28;19912;-55
2022/09/26 13:04:14;;;;;;;;;;;26.20;99.90;;;;;;5045545;28;19911;-53
2022/09/26 13:06:42;;;;;;;;;;;26.30;99.90;;;;;;5047600;28;19916;-53
2022/09/26 13:09:08;;;;;;;;;;;26.30;99.90;;;;;;5046883;28;20007;-55
2022/09/26 13:11:44;;;;;;;;;;;26.40;99.90;;;;;;5045167;28;19901;-53
2022/09/26 13:14:13;;;;;;;;;;;26.40;99.90;;;;;;5044419;28;19934;-51
2022/09/26 13:16:42;;;;;;;;;;;26.40;99.90;;;;;;5046738;28;20346;-51
2022/09/26 13:19:36;;;;;;;;;;;26.40;99.90;;;;;;5045448;28;19924;-53
2022/09/26 13:22:08;;;;;;;;;;;26.40;99.90;;;;;;5043748;28;19951;-54
2022/09/26 13:24:45;;;;;;;;;;;26.50;99.90;;;;;;5048915;28;19967;-53
2022/09/26 13:27:16;;;;;;;;;;;26.50;99.90;;;;;;5048785;28;19950;-55
2022/09/26 13:29:43;;;;;;;;;;;26.40;99.90;;;;;;5047374;28;19923;-54
2022/09/26 13:32:13;;;;;;;;;;;26.40;99.90;;;;;;5047687;28;19996;-54
2022/09/26 13:34:43;;;;;;;;;;;26.40;99.90;;;;;;5044275;28;19966;-54
2022/09/26 13:37:19;;;;;;;;;;;26.40;99.90;;;;;;5044219;28;19905;-52
2022/09/26 13:39:53;;;;;;;;;;;26.50;99.90;;;;;;5047441;28;19968;-52
2022/09/26 13:42:36;;;;;;;;;;;26.50;99.90;;;;;;5047688;28;20375;-54
2022/09/26 13:45:08;;;;;;;;;;;26.50;99.90;;;;;;5044929;28;19908;-54
2022/09/26 13:47:39;;;;;;;;;;;26.50;99.90;;;;;;5047874;28;19911;-55
2022/09/26 13:50:28;;;;;;;;;;;26.60;99.90;;;;;;5047562;28;20341;-55
2022/09/26 13:52:54;;;;;;;;;;;26.60;99.90;;;;;;5044046;28;19908;-54
2022/09/26 13:55:20;;;;;;;;;;;26.60;99.90;;;;;;5048224;28;19963;-54
2022/09/26 13:58:03;;;;;;;;;;;26.60;99.90;;;;;;5052957;28;19908;-54
2022/09/26 14:00:29;;;;;;;;;;;26.60;99.90;;;;;;5051607;28;19974;-54
2022/09/26 14:03:15;;;;;;;;;;;26.60;99.90;;;;;;5051187;28;20345;-54
2022/09/26 14:05:40;;;;;;;;;;;26.70;99.90;;;;;;5052587;28;20429;-55
2022/09/26 14:11:27;;;;;;;;;;;26.70;99.90;;;;;;5050301;28;19908;-55
2022/09/26 14:14:14;;;;;;;;;;;26.70;99.90;;;;;;5050481;28;19994;-53
2022/09/26 14:16:40;;;;;;;;;;;26.70;99.90;;;;;;5050350;28;19912;-54
2022/09/26 14:19:10;;;;;;;;;;;26.80;99.90;;;;;;5052130;28;19912;-54
2022/09/26 14:21:56;;;;;;;;;;;26.80;99.90;;;;;;5051159;28;19925;-54
2022/09/26 14:24:30;;;;;;;;;;;26.90;99.90;;;;;;5050220;28;19955;-55
2022/09/26 14:26:57;;;;;;;;;;;26.90;99.90;;;;;;5052387;28;19905;-54